Airfield :
LOGIN :

Register | Disclaimer

   EN    FR    IT 

 










Legend :    VFR   Marginal VFR   IFR   Intensive IFR   Very Intensive IFR
Visi :
Ceiling :
>= 8 km
>= 3000ft
5 to 8 km
1000 to 3000 ft
1500m to 5 km
500 to 1000 ft
800 to 1500m
200 to 500 ft
< 800m
< 200 ft
Symbols :   Thunderstorms  Fog  Heavy snow  Heavy precipitations  Wind > 20 kt
SIGMETs :     Misc.  Thunderstorms  Icing  Turbulence  Mountain Waves  Volcanic Ashes






- Airport Elevation : 788 ft
- IATA code : DCM


LFCK - Castres-Mazamet

CURRENT METAR :
  • 181300Z AUTO 36012KT 9999 FEW035/// BKN074/// BKN086/// ///CB 10/05 Q1020 TEMPO 33015G25KT 4000 SHRA

EXPIRED METARs :
  • 181230Z AUTO 32019KT 290V350 9999 BKN036/// BKN045/// BKN052/// ///CB 10/04 Q1019 TEMPO 33015G25KT 4000 SHRA
  • 181200Z AUTO 31019KT 9999 BKN026/// BKN033/// OVC039/// ///CB 11/05 Q1019 TEMPO 33015G25KT 4000 SHRA
  • 181130Z AUTO 31016KT 9999 FEW028/// BKN036/// BKN050/// ///CB 09/05 Q1019 TEMPO 33015G25KT 4000 SHRA
  • 181100Z AUTO 31012KT 9999 FEW043/// BKN052/// OVC066/// ///TCU 09/04 Q1020 TEMPO 33015G25KT 4000 SHRA SCT030CB
  • 181030Z AUTO 31013KT 9999 FEW036/// BKN056/// OVC070/// ///TCU 08/04 Q1020 TEMPO 33015G25KT 4000 SHRA SCT030CB
  • 181000Z AUTO 33016G26KT 9999 -RA FEW020/// SCT029/// BKN043/// ///TCU 07/05 Q1020 TEMPO 4000 SHRA SCT030CB
  • 180930Z AUTO 32016KT 9999 -RA SCT028/// BKN036/// BKN044/// ///TCU 08/04 Q1020 TEMPO 33015G25KT 4000 SHRA SCT030CB
  • 180900Z AUTO 32013KT 9999 FEW025/// BKN062/// OVC074/// ///TCU 08/04 Q1020 TEMPO 33015G25KT 4000 SHRA SCT030CB
  • 180830Z AUTO 33011KT 9999 RA FEW010 SCT016 BKN022 08/05 Q1020 TEMPO 33015G25KT 4000 SHRA SCT030CB

TAF TAF LFCK
Valid from the 18 at 12:00 until the 18 at 21:00 UTC


181100Z 1812/1821 33012KT 9999 SCT030 BKN045
TEMPO 1812/1817 33015G25KT
PROB40
TEMPO 1812/1815 4000 SHRA SCT030CB
BECMG 1817/1819 CAVOK
BECMG 1819/1821 VRB03KT



MET'MAP, your aeronautical weather chart ! - Copyright ORBIFLY December 2007 - Disclaimer

ORBIFLY MET'MAP TEAM :

Programming & Development : Alexandra Zaïnal
Original concept : Baudouin d'Aumeries
Technical & hardware support : Manuel Goepfert
Assistance : Marc-Olivier Méhu




SOURCES & CREDITS :

   NOAA